sensor_id;sensor_type;location;lat;lon;timestamp;P1;durP1;ratioP1;P2;durP2;ratioP2
48621;SDS011;34421;48.944;9.460;2022-07-23T00:02:23;4.82;;;2.65;;
48621;SDS011;34421;48.944;9.460;2022-07-23T00:04:48;3.65;;;2.50;;
48621;SDS011;34421;48.944;9.460;2022-07-23T00:07:13;4.40;;;2.47;;
48621;SDS011;34421;48.944;9.460;2022-07-23T00:09:39;3.28;;;2.08;;
48621;SDS011;34421;48.944;9.460;2022-07-23T00:12:04;3.47;;;2.20;;
48621;SDS011;34421;48.944;9.460;2022-07-23T00:14:30;3.67;;;2.22;;
48621;SDS011;34421;48.944;9.460;2022-07-23T00:16:55;3.25;;;1.60;;
48621;SDS011;34421;48.944;9.460;2022-07-23T00:19:20;3.83;;;2.15;;
48621;SDS011;34421;48.944;9.460;2022-07-23T00:21:46;3.90;;;2.28;;
48621;SDS011;34421;48.944;9.460;2022-07-23T00:24:11;2.63;;;1.80;;
48621;SDS011;34421;48.944;9.460;2022-07-23T00:26:36;2.85;;;1.80;;
48621;SDS011;34421;48.944;9.460;2022-07-23T00:29:02;2.92;;;1.80;;
48621;SDS011;34421;48.944;9.460;2022-07-23T00:31:27;4.68;;;2.33;;
48621;SDS011;34421;48.944;9.460;2022-07-23T00:33:52;3.05;;;1.63;;
48621;SDS011;34421;48.944;9.460;2022-07-23T00:36:21;3.03;;;1.60;;
48621;SDS011;34421;48.944;9.460;2022-07-23T00:38:48;2.80;;;1.80;;
48621;SDS011;34421;48.944;9.460;2022-07-23T00:41:14;3.03;;;1.70;;
48621;SDS011;34421;48.944;9.460;2022-07-23T00:43:39;3.45;;;1.73;;
48621;SDS011;34421;48.944;9.460;2022-07-23T00:46:04;3.33;;;1.90;;
48621;SDS011;34421;48.944;9.460;2022-07-23T00:48:30;3.08;;;1.80;;
48621;SDS011;34421;48.944;9.460;2022-07-23T00:50:55;3.15;;;2.13;;
48621;SDS011;34421;48.944;9.460;2022-07-23T00:53:21;2.83;;;1.63;;
48621;SDS011;34421;48.944;9.460;2022-07-23T00:55:46;3.42;;;1.92;;
48621;SDS011;34421;48.944;9.460;2022-07-23T00:58:13;3.65;;;2.05;;
48621;SDS011;34421;48.944;9.460;2022-07-23T01:00:40;2.60;;;1.67;;
48621;SDS011;34421;48.944;9.460;2022-07-23T01:03:06;2.72;;;1.90;;
48621;SDS011;34421;48.944;9.460;2022-07-23T01:05:32;2.95;;;1.90;;
48621;SDS011;34421;48.944;9.460;2022-07-23T01:07:58;2.78;;;1.77;;
48621;SDS011;34421;48.944;9.460;2022-07-23T01:10:23;3.10;;;1.60;;
48621;SDS011;34421;48.944;9.460;2022-07-23T01:15:31;2.85;;;1.58;;
48621;SDS011;34421;48.944;9.460;2022-07-23T01:17:58;2.53;;;1.30;;
48621;SDS011;34421;48.944;9.460;2022-07-23T01:20:23;2.75;;;1.73;;
48621;SDS011;34421;48.944;9.460;2022-07-23T01:22:49;2.78;;;1.60;;
48621;SDS011;34421;48.944;9.460;2022-07-23T01:25:15;2.15;;;1.30;;
48621;SDS011;34421;48.944;9.460;2022-07-23T01:27:40;2.15;;;1.13;;
48621;SDS011;34421;48.944;9.460;2022-07-23T01:30:07;3.30;;;1.70;;
48621;SDS011;34421;48.944;9.460;2022-07-23T01:32:33;2.92;;;1.35;;
48621;SDS011;34421;48.944;9.460;2022-07-23T01:34:58;2.25;;;1.20;;
48621;SDS011;34421;48.944;9.460;2022-07-23T01:37:23;2.08;;;1.10;;
48621;SDS011;34421;48.944;9.460;2022-07-23T01:39:49;2.55;;;1.20;;
48621;SDS011;34421;48.944;9.460;2022-07-23T01:42:14;2.75;;;1.40;;
48621;SDS011;34421;48.944;9.460;2022-07-23T01:44:39;2.00;;;1.20;;
48621;SDS011;34421;48.944;9.460;2022-07-23T01:47:05;2.65;;;1.30;;
48621;SDS011;34421;48.944;9.460;2022-07-23T01:49:30;2.78;;;1.33;;
48621;SDS011;34421;48.944;9.460;2022-07-23T01:51:55;2.53;;;1.10;;
48621;SDS011;34421;48.944;9.460;2022-07-23T01:56:52;2.30;;;1.23;;
48621;SDS011;34421;48.944;9.460;2022-07-23T01:59:17;2.70;;;1.60;;
48621;SDS011;34421;48.944;9.460;2022-07-23T02:01:43;2.40;;;1.35;;
48621;SDS011;34421;48.944;9.460;2022-07-23T02:04:08;2.08;;;1.20;;
48621;SDS011;34421;48.944;9.460;2022-07-23T02:06:33;2.38;;;1.38;;
48621;SDS011;34421;48.944;9.460;2022-07-23T02:08:59;2.22;;;1.40;;
48621;SDS011;34421;48.944;9.460;2022-07-23T02:11:24;2.30;;;1.13;;
48621;SDS011;34421;48.944;9.460;2022-07-23T02:13:49;2.47;;;1.30;;
48621;SDS011;34421;48.944;9.460;2022-07-23T02:16:15;2.28;;;1.30;;
48621;SDS011;34421;48.944;9.460;2022-07-23T02:18:40;3.20;;;1.40;;
48621;SDS011;34421;48.944;9.460;2022-07-23T02:21:05;1.55;;;1.10;;
48621;SDS011;34421;48.944;9.460;2022-07-23T02:23:31;2.03;;;1.10;;
48621;SDS011;34421;48.944;9.460;2022-07-23T02:25:56;2.55;;;1.33;;
48621;SDS011;34421;48.944;9.460;2022-07-23T02:28:21;2.17;;;1.20;;
48621;SDS011;34421;48.944;9.460;2022-07-23T02:30:47;2.55;;;1.30;;
48621;SDS011;34421;48.944;9.460;2022-07-23T02:33:12;2.75;;;1.45;;
48621;SDS011;34421;48.944;9.460;2022-07-23T02:35:37;1.70;;;1.02;;
48621;SDS011;34421;48.944;9.460;2022-07-23T02:38:03;2.78;;;1.40;;
48621;SDS011;34421;48.944;9.460;2022-07-23T02:40:28;2.40;;;1.30;;
48621;SDS011;34421;48.944;9.460;2022-07-23T02:42:53;2.38;;;1.33;;
48621;SDS011;34421;48.944;9.460;2022-07-23T02:45:19;2.83;;;1.42;;
48621;SDS011;34421;48.944;9.460;2022-07-23T02:47:44;2.33;;;1.55;;
48621;SDS011;34421;48.944;9.460;2022-07-23T02:50:09;3.28;;;1.50;;
48621;SDS011;34421;48.944;9.460;2022-07-23T02:52:37;2.38;;;1.15;;
48621;SDS011;34421;48.944;9.460;2022-07-23T02:55:02;3.05;;;1.38;;
48621;SDS011;34421;48.944;9.460;2022-07-23T02:57:28;2.25;;;1.20;;
48621;SDS011;34421;48.944;9.460;2022-07-23T02:59:53;2.15;;;1.35;;
48621;SDS011;34421;48.944;9.460;2022-07-23T03:02:19;2.33;;;1.20;;
48621;SDS011;34421;48.944;9.460;2022-07-23T03:04:44;2.83;;;1.55;;
48621;SDS011;34421;48.944;9.460;2022-07-23T03:07:09;2.42;;;1.40;;
48621;SDS011;34421;48.944;9.460;2022-07-23T03:09:35;3.08;;;1.40;;
48621;SDS011;34421;48.944;9.460;2022-07-23T03:12:00;2.00;;;1.00;;
48621;SDS011;34421;48.944;9.460;2022-07-23T03:14:25;2.25;;;1.25;;
48621;SDS011;34421;48.944;9.460;2022-07-23T03:16:52;3.05;;;1.35;;
48621;SDS011;34421;48.944;9.460;2022-07-23T03:19:18;2.45;;;1.45;;
48621;SDS011;34421;48.944;9.460;2022-07-23T03:21:43;2.53;;;1.40;;
48621;SDS011;34421;48.944;9.460;2022-07-23T03:24:09;2.03;;;1.25;;
48621;SDS011;34421;48.944;9.460;2022-07-23T03:26:34;1.92;;;1.17;;
48621;SDS011;34421;48.944;9.460;2022-07-23T03:29:00;3.63;;;1.70;;
48621;SDS011;34421;48.944;9.460;2022-07-23T03:31:26;3.17;;;1.40;;
48621;SDS011;34421;48.944;9.460;2022-07-23T03:33:51;2.45;;;1.38;;
48621;SDS011;34421;48.944;9.460;2022-07-23T03:36:17;2.53;;;1.50;;
48621;SDS011;34421;48.944;9.460;2022-07-23T03:38:42;2.42;;;1.60;;
48621;SDS011;34421;48.944;9.460;2022-07-23T03:41:07;2.22;;;1.30;;
48621;SDS011;34421;48.944;9.460;2022-07-23T03:43:33;2.53;;;1.38;;
48621;SDS011;34421;48.944;9.460;2022-07-23T03:45:58;3.00;;;1.67;;
48621;SDS011;34421;48.944;9.460;2022-07-23T03:48:23;4.95;;;1.58;;
48621;SDS011;34421;48.944;9.460;2022-07-23T03:50:49;3.63;;;1.70;;
48621;SDS011;34421;48.944;9.460;2022-07-23T03:53:14;2.60;;;1.30;;
48621;SDS011;34421;48.944;9.460;2022-07-23T03:55:39;2.60;;;1.38;;
48621;SDS011;34421;48.944;9.460;2022-07-23T03:58:05;3.15;;;1.35;;
48621;SDS011;34421;48.944;9.460;2022-07-23T04:00:30;3.10;;;1.65;;
48621;SDS011;34421;48.944;9.460;2022-07-23T04:02:56;2.10;;;1.17;;
48621;SDS011;34421;48.944;9.460;2022-07-23T04:05:21;2.15;;;1.30;;
48621;SDS011;34421;48.944;9.460;2022-07-23T04:07:46;2.85;;;1.60;;
48621;SDS011;34421;48.944;9.460;2022-07-23T04:10:12;2.50;;;1.30;;
48621;SDS011;34421;48.944;9.460;2022-07-23T04:12:37;1.83;;;1.00;;
48621;SDS011;34421;48.944;9.460;2022-07-23T04:15:02;2.53;;;1.52;;
48621;SDS011;34421;48.944;9.460;2022-07-23T04:17:28;3.08;;;1.52;;
48621;SDS011;34421;48.944;9.460;2022-07-23T04:19:54;3.22;;;1.98;;
48621;SDS011;34421;48.944;9.460;2022-07-23T04:22:19;2.97;;;1.80;;
48621;SDS011;34421;48.944;9.460;2022-07-23T04:24:44;2.28;;;1.35;;
48621;SDS011;34421;48.944;9.460;2022-07-23T04:27:10;2.65;;;1.40;;
48621;SDS011;34421;48.944;9.460;2022-07-23T04:29:35;2.03;;;1.38;;
48621;SDS011;34421;48.944;9.460;2022-07-23T04:32:01;2.80;;;1.60;;
48621;SDS011;34421;48.944;9.460;2022-07-23T04:34:26;3.35;;;1.55;;
48621;SDS011;34421;48.944;9.460;2022-07-23T04:36:52;2.60;;;1.65;;
48621;SDS011;34421;48.944;9.460;2022-07-23T04:39:18;2.47;;;1.27;;
48621;SDS011;34421;48.944;9.460;2022-07-23T04:41:43;2.20;;;1.20;;
48621;SDS011;34421;48.944;9.460;2022-07-23T04:44:09;2.65;;;1.48;;
48621;SDS011;34421;48.944;9.460;2022-07-23T04:46:34;3.00;;;1.50;;
48621;SDS011;34421;48.944;9.460;2022-07-23T04:48:59;2.83;;;1.60;;
48621;SDS011;34421;48.944;9.460;2022-07-23T04:51:25;2.90;;;1.42;;
48621;SDS011;34421;48.944;9.460;2022-07-23T04:53:50;2.22;;;1.15;;
48621;SDS011;34421;48.944;9.460;2022-07-23T04:56:16;3.08;;;1.70;;
48621;SDS011;34421;48.944;9.460;2022-07-23T04:58:41;2.40;;;1.40;;
48621;SDS011;34421;48.944;9.460;2022-07-23T05:01:07;2.50;;;1.30;;
48621;SDS011;34421;48.944;9.460;2022-07-23T05:03:32;3.15;;;1.20;;
48621;SDS011;34421;48.944;9.460;2022-07-23T05:05:58;3.00;;;1.50;;
48621;SDS011;34421;48.944;9.460;2022-07-23T05:08:23;2.35;;;1.23;;
48621;SDS011;34421;48.944;9.460;2022-07-23T05:10:48;2.55;;;1.58;;
48621;SDS011;34421;48.944;9.460;2022-07-23T05:13:14;2.72;;;1.67;;
48621;SDS011;34421;48.944;9.460;2022-07-23T05:15:41;4.10;;;1.50;;
48621;SDS011;34421;48.944;9.460;2022-07-23T05:18:06;3.10;;;1.88;;
48621;SDS011;34421;48.944;9.460;2022-07-23T05:20:32;2.60;;;1.55;;
48621;SDS011;34421;48.944;9.460;2022-07-23T05:22:57;4.22;;;2.17;;
48621;SDS011;34421;48.944;9.460;2022-07-23T05:25:22;2.60;;;1.50;;
48621;SDS011;34421;48.944;9.460;2022-07-23T05:27:48;3.08;;;1.48;;
48621;SDS011;34421;48.944;9.460;2022-07-23T05:30:13;2.85;;;1.65;;
48621;SDS011;34421;48.944;9.460;2022-07-23T05:32:39;2.63;;;1.52;;
48621;SDS011;34421;48.944;9.460;2022-07-23T05:35:05;2.53;;;1.45;;
48621;SDS011;34421;48.944;9.460;2022-07-23T05:37:31;3.25;;;1.50;;
48621;SDS011;34421;48.944;9.460;2022-07-23T05:40:00;3.15;;;1.63;;
48621;SDS011;34421;48.944;9.460;2022-07-23T05:42:27;2.97;;;1.63;;
48621;SDS011;34421;48.944;9.460;2022-07-23T05:44:52;3.10;;;1.58;;
48621;SDS011;34421;48.944;9.460;2022-07-23T05:47:17;2.63;;;1.45;;
48621;SDS011;34421;48.944;9.460;2022-07-23T05:49:43;2.65;;;1.80;;
48621;SDS011;34421;48.944;9.460;2022-07-23T05:52:08;2.50;;;1.77;;
48621;SDS011;34421;48.944;9.460;2022-07-23T05:54:34;2.60;;;1.42;;
48621;SDS011;34421;48.944;9.460;2022-07-23T05:57:00;2.92;;;1.52;;
48621;SDS011;34421;48.944;9.460;2022-07-23T05:59:26;3.28;;;1.50;;
48621;SDS011;34421;48.944;9.460;2022-07-23T06:01:51;2.80;;;1.50;;
48621;SDS011;34421;48.944;9.460;2022-07-23T06:04:16;2.50;;;1.60;;
48621;SDS011;34421;48.944;9.460;2022-07-23T06:06:42;2.80;;;1.65;;
48621;SDS011;34421;48.944;9.460;2022-07-23T06:09:07;2.30;;;1.40;;
48621;SDS011;34421;48.944;9.460;2022-07-23T06:11:32;3.28;;;2.05;;
48621;SDS011;34421;48.944;9.460;2022-07-23T06:13:58;3.55;;;2.15;;
48621;SDS011;34421;48.944;9.460;2022-07-23T06:16:23;3.72;;;1.92;;
48621;SDS011;34421;48.944;9.460;2022-07-23T06:18:48;3.95;;;2.33;;
48621;SDS011;34421;48.944;9.460;2022-07-23T06:21:14;3.42;;;2.08;;
48621;SDS011;34421;48.944;9.460;2022-07-23T06:23:39;3.28;;;2.17;;
48621;SDS011;34421;48.944;9.460;2022-07-23T06:26:05;3.65;;;2.28;;
48621;SDS011;34421;48.944;9.460;2022-07-23T06:28:30;3.25;;;1.98;;
48621;SDS011;34421;48.944;9.460;2022-07-23T06:30:55;4.13;;;2.65;;
48621;SDS011;34421;48.944;9.460;2022-07-23T06:33:21;3.30;;;2.17;;
48621;SDS011;34421;48.944;9.460;2022-07-23T06:35:46;4.25;;;2.25;;
48621;SDS011;34421;48.944;9.460;2022-07-23T06:38:11;3.58;;;2.00;;
48621;SDS011;34421;48.944;9.460;2022-07-23T06:40:37;3.92;;;2.30;;
48621;SDS011;34421;48.944;9.460;2022-07-23T06:43:03;3.72;;;2.17;;
48621;SDS011;34421;48.944;9.460;2022-07-23T06:45:28;4.15;;;2.90;;
48621;SDS011;34421;48.944;9.460;2022-07-23T06:47:54;3.75;;;2.25;;
48621;SDS011;34421;48.944;9.460;2022-07-23T06:50:19;3.83;;;2.38;;
48621;SDS011;34421;48.944;9.460;2022-07-23T06:52:44;4.75;;;2.60;;
48621;SDS011;34421;48.944;9.460;2022-07-23T06:55:10;5.28;;;2.58;;
48621;SDS011;34421;48.944;9.460;2022-07-23T06:57:35;3.17;;;1.83;;
48621;SDS011;34421;48.944;9.460;2022-07-23T07:00:01;4.40;;;2.65;;
48621;SDS011;34421;48.944;9.460;2022-07-23T07:02:26;3.22;;;2.30;;
48621;SDS011;34421;48.944;9.460;2022-07-23T07:04:51;4.45;;;2.30;;
48621;SDS011;34421;48.944;9.460;2022-07-23T07:07:18;3.40;;;2.22;;
48621;SDS011;34421;48.944;9.460;2022-07-23T07:09:43;3.95;;;2.38;;
48621;SDS011;34421;48.944;9.460;2022-07-23T07:12:09;4.57;;;3.05;;
48621;SDS011;34421;48.944;9.460;2022-07-23T07:14:36;6.03;;;3.10;;
48621;SDS011;34421;48.944;9.460;2022-07-23T07:17:02;5.20;;;2.83;;
48621;SDS011;34421;48.944;9.460;2022-07-23T07:19:27;4.78;;;3.03;;
48621;SDS011;34421;48.944;9.460;2022-07-23T07:21:53;5.47;;;3.28;;
48621;SDS011;34421;48.944;9.460;2022-07-23T07:24:18;3.65;;;2.28;;
48621;SDS011;34421;48.944;9.460;2022-07-23T07:26:43;4.70;;;2.92;;
48621;SDS011;34421;48.944;9.460;2022-07-23T07:29:09;6.20;;;3.25;;
48621;SDS011;34421;48.944;9.460;2022-07-23T07:31:34;4.63;;;3.17;;
48621;SDS011;34421;48.944;9.460;2022-07-23T07:33:59;4.78;;;3.17;;
48621;SDS011;34421;48.944;9.460;2022-07-23T07:36:25;5.38;;;3.58;;
48621;SDS011;34421;48.944;9.460;2022-07-23T07:38:50;4.95;;;3.42;;
48621;SDS011;34421;48.944;9.460;2022-07-23T07:41:16;5.80;;;3.25;;
48621;SDS011;34421;48.944;9.460;2022-07-23T07:43:41;6.03;;;3.55;;
48621;SDS011;34421;48.944;9.460;2022-07-23T07:46:07;5.50;;;3.35;;
48621;SDS011;34421;48.944;9.460;2022-07-23T07:48:36;5.43;;;2.78;;
48621;SDS011;34421;48.944;9.460;2022-07-23T07:51:03;4.85;;;3.30;;
48621;SDS011;34421;48.944;9.460;2022-07-23T07:53:29;3.88;;;2.63;;
48621;SDS011;34421;48.944;9.460;2022-07-23T07:55:54;4.00;;;2.90;;
48621;SDS011;34421;48.944;9.460;2022-07-23T07:58:20;4.25;;;2.80;;
48621;SDS011;34421;48.944;9.460;2022-07-23T08:00:45;4.18;;;2.70;;
48621;SDS011;34421;48.944;9.460;2022-07-23T08:03:10;3.33;;;2.30;;
48621;SDS011;34421;48.944;9.460;2022-07-23T08:05:36;4.07;;;2.50;;
48621;SDS011;34421;48.944;9.460;2022-07-23T08:08:01;4.72;;;2.50;;
48621;SDS011;34421;48.944;9.460;2022-07-23T08:10:27;4.88;;;3.00;;
48621;SDS011;34421;48.944;9.460;2022-07-23T08:12:56;3.25;;;1.90;;
48621;SDS011;34421;48.944;9.460;2022-07-23T08:15:22;3.60;;;2.10;;
48621;SDS011;34421;48.944;9.460;2022-07-23T08:17:48;4.95;;;2.60;;
48621;SDS011;34421;48.944;9.460;2022-07-23T08:20:15;4.05;;;2.50;;
48621;SDS011;34421;48.944;9.460;2022-07-23T08:25:20;3.83;;;2.15;;
48621;SDS011;34421;48.944;9.460;2022-07-23T08:27:57;4.03;;;2.30;;
48621;SDS011;34421;48.944;9.460;2022-07-23T08:30:24;3.47;;;2.00;;
48621;SDS011;34421;48.944;9.460;2022-07-23T08:35:17;4.30;;;2.42;;
48621;SDS011;34421;48.944;9.460;2022-07-23T08:37:46;4.97;;;2.55;;
48621;SDS011;34421;48.944;9.460;2022-07-23T08:40:12;4.80;;;2.70;;
48621;SDS011;34421;48.944;9.460;2022-07-23T08:42:38;3.55;;;2.20;;
48621;SDS011;34421;48.944;9.460;2022-07-23T08:45:04;4.65;;;2.60;;
48621;SDS011;34421;48.944;9.460;2022-07-23T08:47:32;3.65;;;1.95;;
48621;SDS011;34421;48.944;9.460;2022-07-23T08:49:58;3.97;;;2.00;;
48621;SDS011;34421;48.944;9.460;2022-07-23T08:52:24;3.50;;;2.13;;
48621;SDS011;34421;48.944;9.460;2022-07-23T08:54:51;4.20;;;2.55;;
48621;SDS011;34421;48.944;9.460;2022-07-23T08:57:17;4.25;;;2.58;;
48621;SDS011;34421;48.944;9.460;2022-07-23T08:59:43;3.58;;;2.20;;
48621;SDS011;34421;48.944;9.460;2022-07-23T09:02:08;3.95;;;2.13;;
48621;SDS011;34421;48.944;9.460;2022-07-23T09:04:34;3.08;;;2.20;;
48621;SDS011;34421;48.944;9.460;2022-07-23T09:06:59;4.15;;;1.90;;
48621;SDS011;34421;48.944;9.460;2022-07-23T09:09:26;3.83;;;2.42;;
48621;SDS011;34421;48.944;9.460;2022-07-23T09:12:08;3.50;;;2.05;;
48621;SDS011;34421;48.944;9.460;2022-07-23T09:17:10;3.42;;;1.95;;
48621;SDS011;34421;48.944;9.460;2022-07-23T09:19:43;3.80;;;2.35;;
48621;SDS011;34421;48.944;9.460;2022-07-23T09:22:17;4.32;;;2.47;;
48621;SDS011;34421;48.944;9.460;2022-07-23T09:30:12;3.33;;;2.10;;
48621;SDS011;34421;48.944;9.460;2022-07-23T09:32:41;2.95;;;1.85;;
48621;SDS011;34421;48.944;9.460;2022-07-23T09:35:07;3.45;;;2.22;;
48621;SDS011;34421;48.944;9.460;2022-07-23T09:37:33;3.17;;;1.67;;
48621;SDS011;34421;48.944;9.460;2022-07-23T09:40:08;3.38;;;1.90;;
48621;SDS011;34421;48.944;9.460;2022-07-23T09:42:36;3.33;;;1.73;;
48621;SDS011;34421;48.944;9.460;2022-07-23T09:45:02;2.92;;;1.60;;
48621;SDS011;34421;48.944;9.460;2022-07-23T09:47:29;3.20;;;2.00;;
48621;SDS011;34421;48.944;9.460;2022-07-23T09:50:09;3.40;;;2.05;;
48621;SDS011;34421;48.944;9.460;2022-07-23T09:52:45;3.85;;;2.42;;
48621;SDS011;34421;48.944;9.460;2022-07-23T09:55:12;2.95;;;1.90;;
48621;SDS011;34421;48.944;9.460;2022-07-23T09:57:39;3.85;;;2.00;;
48621;SDS011;34421;48.944;9.460;2022-07-23T10:00:06;3.03;;;1.98;;
48621;SDS011;34421;48.944;9.460;2022-07-23T10:02:34;3.70;;;1.83;;
48621;SDS011;34421;48.944;9.460;2022-07-23T10:05:00;4.07;;;2.10;;
48621;SDS011;34421;48.944;9.460;2022-07-23T10:07:27;3.53;;;1.83;;
48621;SDS011;34421;48.944;9.460;2022-07-23T10:09:56;3.92;;;2.40;;
48621;SDS011;34421;48.944;9.460;2022-07-23T10:12:23;4.30;;;2.38;;
48621;SDS011;34421;48.944;9.460;2022-07-23T10:14:58;4.82;;;2.70;;
48621;SDS011;34421;48.944;9.460;2022-07-23T10:17:25;3.28;;;1.83;;
48621;SDS011;34421;48.944;9.460;2022-07-23T10:19:50;3.70;;;2.10;;
48621;SDS011;34421;48.944;9.460;2022-07-23T10:24:52;2.97;;;1.92;;
48621;SDS011;34421;48.944;9.460;2022-07-23T10:30:11;3.08;;;2.00;;
48621;SDS011;34421;48.944;9.460;2022-07-23T10:37:56;3.67;;;1.88;;
48621;SDS011;34421;48.944;9.460;2022-07-23T10:40:27;4.05;;;1.85;;
48621;SDS011;34421;48.944;9.460;2022-07-23T10:42:58;2.97;;;1.73;;
48621;SDS011;34421;48.944;9.460;2022-07-23T10:45:28;3.33;;;2.10;;
48621;SDS011;34421;48.944;9.460;2022-07-23T10:48:22;2.90;;;1.80;;
48621;SDS011;34421;48.944;9.460;2022-07-23T10:51:06;3.17;;;2.03;;
48621;SDS011;34421;48.944;9.460;2022-07-23T10:56:14;3.85;;;2.38;;
48621;SDS011;34421;48.944;9.460;2022-07-23T10:58:47;4.00;;;2.40;;
48621;SDS011;34421;48.944;9.460;2022-07-23T11:01:36;3.92;;;1.88;;
48621;SDS011;34421;48.944;9.460;2022-07-23T11:04:02;4.40;;;2.53;;
48621;SDS011;34421;48.944;9.460;2022-07-23T11:07:16;3.00;;;2.00;;
48621;SDS011;34421;48.944;9.460;2022-07-23T11:17:24;2.78;;;1.80;;
48621;SDS011;34421;48.944;9.460;2022-07-23T11:22:56;3.92;;;2.03;;
48621;SDS011;34421;48.944;9.460;2022-07-23T11:27:55;3.75;;;1.95;;
48621;SDS011;34421;48.944;9.460;2022-07-23T11:30:40;3.17;;;2.03;;
48621;SDS011;34421;48.944;9.460;2022-07-23T11:35:33;4.07;;;2.30;;
48621;SDS011;34421;48.944;9.460;2022-07-23T11:38:07;4.13;;;2.33;;
48621;SDS011;34421;48.944;9.460;2022-07-23T11:40:38;3.30;;;1.90;;
48621;SDS011;34421;48.944;9.460;2022-07-23T11:43:04;3.10;;;1.88;;
48621;SDS011;34421;48.944;9.460;2022-07-23T11:45:42;4.57;;;2.70;;
48621;SDS011;34421;48.944;9.460;2022-07-23T11:48:09;2.72;;;1.98;;
48621;SDS011;34421;48.944;9.460;2022-07-23T11:50:42;3.60;;;2.00;;
48621;SDS011;34421;48.944;9.460;2022-07-23T11:53:07;3.70;;;2.20;;
48621;SDS011;34421;48.944;9.460;2022-07-23T11:55:33;4.38;;;2.05;;
48621;SDS011;34421;48.944;9.460;2022-07-23T11:57:58;3.40;;;2.08;;
48621;SDS011;34421;48.944;9.460;2022-07-23T12:00:25;2.90;;;1.75;;
48621;SDS011;34421;48.944;9.460;2022-07-23T12:02:53;4.10;;;2.40;;
48621;SDS011;34421;48.944;9.460;2022-07-23T12:05:22;3.47;;;2.50;;
48621;SDS011;34421;48.944;9.460;2022-07-23T12:07:50;3.90;;;2.50;;
48621;SDS011;34421;48.944;9.460;2022-07-23T12:10:18;3.97;;;2.45;;
48621;SDS011;34421;48.944;9.460;2022-07-23T12:12:47;3.88;;;2.33;;
48621;SDS011;34421;48.944;9.460;2022-07-23T12:15:18;4.05;;;2.10;;
48621;SDS011;34421;48.944;9.460;2022-07-23T12:17:46;4.72;;;2.67;;
48621;SDS011;34421;48.944;9.460;2022-07-23T12:20:13;4.95;;;2.38;;
48621;SDS011;34421;48.944;9.460;2022-07-23T12:22:45;4.20;;;2.53;;
48621;SDS011;34421;48.944;9.460;2022-07-23T12:25:13;4.80;;;2.75;;
48621;SDS011;34421;48.944;9.460;2022-07-23T12:27:41;2.58;;;1.80;;
48621;SDS011;34421;48.944;9.460;2022-07-23T12:30:15;4.00;;;2.50;;
48621;SDS011;34421;48.944;9.460;2022-07-23T12:32:48;3.25;;;1.88;;
48621;SDS011;34421;48.944;9.460;2022-07-23T12:35:15;3.55;;;2.20;;
48621;SDS011;34421;48.944;9.460;2022-07-23T12:37:42;4.03;;;2.33;;
48621;SDS011;34421;48.944;9.460;2022-07-23T12:42:57;3.00;;;1.90;;
48621;SDS011;34421;48.944;9.460;2022-07-23T12:45:28;3.42;;;1.98;;
48621;SDS011;34421;48.944;9.460;2022-07-23T12:48:08;3.17;;;2.20;;
48621;SDS011;34421;48.944;9.460;2022-07-23T12:55:49;3.58;;;2.40;;
48621;SDS011;34421;48.944;9.460;2022-07-23T12:58:20;3.10;;;2.00;;
48621;SDS011;34421;48.944;9.460;2022-07-23T13:00:52;2.95;;;1.98;;
48621;SDS011;34421;48.944;9.460;2022-07-23T13:03:39;3.78;;;2.20;;
48621;SDS011;34421;48.944;9.460;2022-07-23T13:06:07;2.60;;;1.77;;
48621;SDS011;34421;48.944;9.460;2022-07-23T13:08:34;3.83;;;2.30;;
48621;SDS011;34421;48.944;9.460;2022-07-23T13:11:02;3.25;;;2.00;;
48621;SDS011;34421;48.944;9.460;2022-07-23T13:13:30;3.42;;;2.28;;
48621;SDS011;34421;48.944;9.460;2022-07-23T13:15:57;3.63;;;2.30;;
48621;SDS011;34421;48.944;9.460;2022-07-23T13:18:23;4.50;;;2.50;;
48621;SDS011;34421;48.944;9.460;2022-07-23T13:20:49;3.63;;;2.50;;
48621;SDS011;34421;48.944;9.460;2022-07-23T13:23:14;3.30;;;2.55;;
48621;SDS011;34421;48.944;9.460;2022-07-23T13:25:40;3.90;;;2.63;;
48621;SDS011;34421;48.944;9.460;2022-07-23T13:28:06;3.75;;;2.40;;
48621;SDS011;34421;48.944;9.460;2022-07-23T13:30:32;4.10;;;2.70;;
48621;SDS011;34421;48.944;9.460;2022-07-23T13:32:58;4.50;;;3.00;;
48621;SDS011;34421;48.944;9.460;2022-07-23T13:35:24;4.82;;;2.47;;
48621;SDS011;34421;48.944;9.460;2022-07-23T13:37:49;3.75;;;2.40;;
48621;SDS011;34421;48.944;9.460;2022-07-23T13:40:14;3.75;;;2.67;;
48621;SDS011;34421;48.944;9.460;2022-07-23T13:42:40;3.67;;;2.35;;
48621;SDS011;34421;48.944;9.460;2022-07-23T13:45:05;3.83;;;2.38;;
48621;SDS011;34421;48.944;9.460;2022-07-23T13:47:31;4.05;;;2.70;;
48621;SDS011;34421;48.944;9.460;2022-07-23T13:49:57;4.60;;;2.80;;
48621;SDS011;34421;48.944;9.460;2022-07-23T13:52:22;5.05;;;2.85;;
48621;SDS011;34421;48.944;9.460;2022-07-23T13:54:48;3.65;;;2.47;;
48621;SDS011;34421;48.944;9.460;2022-07-23T13:57:14;3.78;;;2.65;;
48621;SDS011;34421;48.944;9.460;2022-07-23T13:59:40;4.03;;;2.75;;
48621;SDS011;34421;48.944;9.460;2022-07-23T14:02:05;4.43;;;2.30;;
48621;SDS011;34421;48.944;9.460;2022-07-23T14:04:31;4.15;;;2.50;;
48621;SDS011;34421;48.944;9.460;2022-07-23T14:06:56;3.90;;;2.20;;
48621;SDS011;34421;48.944;9.460;2022-07-23T14:09:22;4.35;;;2.92;;
48621;SDS011;34421;48.944;9.460;2022-07-23T14:11:48;4.93;;;3.00;;
48621;SDS011;34421;48.944;9.460;2022-07-23T14:14:15;4.03;;;2.92;;
48621;SDS011;34421;48.944;9.460;2022-07-23T14:16:41;4.22;;;2.90;;
48621;SDS011;34421;48.944;9.460;2022-07-23T14:19:06;5.50;;;2.78;;
48621;SDS011;34421;48.944;9.460;2022-07-23T14:21:32;4.18;;;2.70;;
48621;SDS011;34421;48.944;9.460;2022-07-23T14:23:57;3.08;;;2.30;;
48621;SDS011;34421;48.944;9.460;2022-07-23T14:26:22;4.53;;;2.55;;
48621;SDS011;34421;48.944;9.460;2022-07-23T14:28:48;4.38;;;2.75;;
48621;SDS011;34421;48.944;9.460;2022-07-23T14:31:13;5.05;;;3.13;;
48621;SDS011;34421;48.944;9.460;2022-07-23T14:33:39;4.57;;;2.70;;
48621;SDS011;34421;48.944;9.460;2022-07-23T14:36:04;3.42;;;2.42;;
48621;SDS011;34421;48.944;9.460;2022-07-23T14:38:29;3.78;;;2.55;;
48621;SDS011;34421;48.944;9.460;2022-07-23T14:40:55;3.83;;;2.50;;
48621;SDS011;34421;48.944;9.460;2022-07-23T14:43:21;4.57;;;2.78;;
48621;SDS011;34421;48.944;9.460;2022-07-23T14:45:47;3.97;;;2.67;;
48621;SDS011;34421;48.944;9.460;2022-07-23T14:48:13;3.83;;;2.70;;
48621;SDS011;34421;48.944;9.460;2022-07-23T14:50:38;3.70;;;2.63;;
48621;SDS011;34421;48.944;9.460;2022-07-23T14:53:04;3.42;;;2.42;;
48621;SDS011;34421;48.944;9.460;2022-07-23T14:55:32;3.53;;;2.47;;
48621;SDS011;34421;48.944;9.460;2022-07-23T14:57:59;4.20;;;2.85;;
48621;SDS011;34421;48.944;9.460;2022-07-23T15:00:24;3.67;;;2.33;;
48621;SDS011;34421;48.944;9.460;2022-07-23T15:02:50;3.88;;;2.50;;
48621;SDS011;34421;48.944;9.460;2022-07-23T15:05:16;3.58;;;2.65;;
48621;SDS011;34421;48.944;9.460;2022-07-23T15:07:42;3.92;;;2.40;;
48621;SDS011;34421;48.944;9.460;2022-07-23T15:10:07;3.55;;;2.30;;
48621;SDS011;34421;48.944;9.460;2022-07-23T15:12:33;3.55;;;2.55;;
48621;SDS011;34421;48.944;9.460;2022-07-23T15:14:59;4.65;;;2.67;;
48621;SDS011;34421;48.944;9.460;2022-07-23T15:17:25;3.78;;;2.60;;
48621;SDS011;34421;48.944;9.460;2022-07-23T15:19:50;3.60;;;2.50;;
48621;SDS011;34421;48.944;9.460;2022-07-23T15:22:16;3.70;;;2.60;;
48621;SDS011;34421;48.944;9.460;2022-07-23T15:24:41;3.50;;;2.30;;
48621;SDS011;34421;48.944;9.460;2022-07-23T15:27:07;3.83;;;2.75;;
48621;SDS011;34421;48.944;9.460;2022-07-23T15:29:32;6.32;;;2.70;;
48621;SDS011;34421;48.944;9.460;2022-07-23T15:31:58;5.25;;;3.67;;
48621;SDS011;34421;48.944;9.460;2022-07-23T15:34:23;4.25;;;3.05;;
48621;SDS011;34421;48.944;9.460;2022-07-23T15:36:49;4.00;;;2.75;;
48621;SDS011;34421;48.944;9.460;2022-07-23T15:39:14;3.78;;;2.65;;
48621;SDS011;34421;48.944;9.460;2022-07-23T15:41:39;4.20;;;3.03;;